This is the latest recevied weather packets stored in our database for station/object JE7UPL-13. If no packets are shown the sender has not sent any weather packets the latest 10 day(s).
| Time | Temp. | Humidity | Pressure | Rain* | Wind** | Luminosity | Snow |
|---|---|---|---|---|---|---|---|
| 1777787104 | 15.56° C | 63% | 1002.1 hPa | 0 mm | - | - | - |
| 1777786205 | 16.67° C | 61% | 1002 hPa | 0 mm | - | - | - |
| 1777785304 | 16.67° C | 59% | 1001.9 hPa | 0 mm | - | - | - |
| 1777784405 | 17.78° C | 55% | 1001.9 hPa | 0 mm | - | - | - |
| 1777783504 | 21.11° C | 37% | 1002 hPa | 0 mm | - | - | - |
| 1777782604 | 21.67° C | 33% | 1002.1 hPa | 0 mm | - | - | - |
| 1777781705 | 22.78° C | 30% | 1002.4 hPa | 0 mm | - | - | - |
| 1777780805 | 23.89° C | 25% | 1002.2 hPa | 0 mm | - | - | - |
| 1777779905 | 23.33° C | 25% | 1002.6 hPa | 0 mm | - | - | - |
| 1777779005 | 23.33° C | 23% | 1003.1 hPa | 0 mm | - | - | - |
| 1777778104 | 22.78° C | 22% | 1003.3 hPa | 0 mm | - | - | - |
| 1777777205 | 23.89° C | 24% | 1003.4 hPa | 0 mm | - | - | - |
| 1777770006 | 22.22° C | 30% | 1005.6 hPa | 0 mm | - | - | - |
| 1777760104 | 15.56° C | 48% | 1007.4 hPa | 0 mm | - | - | - |
| 1777757405 | 13.89° C | 58% | 1007.4 hPa | 0 mm | - | - | - |
| 1777756504 | 13.33° C | 57% | 1007.2 hPa | 0 mm | - | - | - |
| 1777753805 | 13.33° C | 57% | 1006.6 hPa | 0 mm | - | - | - |
| 1777752904 | 12.78° C | 58% | 1006.5 hPa | 0 mm | - | - | - |
| 1777751105 | 12.22° C | 58% | 1006.2 hPa | 0 mm | - | - | - |
| 1777750206 | 12.78° C | 55% | 1006.2 hPa | 0 mm | - | - | - |
| 1777748405 | 13.33° C | 54% | 1005.9 hPa | 0 mm | - | - | - |
| 1777742105 | 12.78° C | 48% | 1005.8 hPa | 0 mm | - | - | - |
| 1777739405 | 12.78° C | 36% | 1005.4 hPa | 0 mm | - | - | - |
| 1777737605 | 12.22° C | 34% | 1005.4 hPa | 0 mm | - | - | - |
| 1777735805 | 9.44° C | 51% | 1005.4 hPa | 0 mm | - | - | - |
* Rain latest hour (hover to see other rain measurements)
** Current wind speed in m/s (hover to see current wind gust speed)